Time;durP1;ratioP1;P1;durP2;ratioP2;P2;SDS_P1;SDS_P2;PMS_P1;PMS_P2;Temp;Humidity;BMP_temperature;BMP_pressure;BME280_temperature;BME280_humidity;BME280_pressure;Samples;Min_cycle;Max_cycle;Signal;HPM_P1;HPM_P2
2021/12/13 00:01:43;;;;;;;24.50;23.30;;;;;;;;;;5092341;28;20635;-76
2021/12/13 00:04:11;;;;;;;28.43;27.13;;;;;;;;;;5095373;28;20198;-76
2021/12/13 00:06:39;;;;;;;29.93;28.63;;;;;;;;;;5095069;28;20276;-76
2021/12/13 00:09:07;;;;;;;28.57;27.27;;;;;;;;;;5096090;28;20257;-76
2021/12/13 00:11:39;;;;;;;27.47;26.17;;;;;;;;;;5095194;28;20190;-77
2021/12/13 00:14:08;;;;;;;26.67;25.40;;;;;;;;;;5095256;28;20182;-76
2021/12/13 00:16:38;;;;;;;26.00;24.80;;;;;;;;;;5094742;28;20280;-77
2021/12/13 00:19:06;;;;;;;24.07;22.97;;;;;;;;;;5094989;28;20284;-76
2021/12/13 00:21:36;;;;;;;23.83;22.83;;;;;;;;;;5094939;28;20194;-76
2021/12/13 00:24:05;;;;;;;28.13;26.93;;;;;;;;;;5094684;28;20190;-79
2021/12/13 00:26:33;;;;;;;24.97;23.77;;;;;;;;;;5094620;28;20665;-77
2021/12/13 00:29:08;;;;;;;24.77;23.47;;;;;;;;;;5094639;28;20233;-77
2021/12/13 00:31:42;;;;;;;25.87;24.73;;;;;;;;;;5094647;28;20710;-80
2021/12/13 00:34:27;;;;;;;27.20;25.90;;;;;;;;;;5094522;28;20766;-80
2021/12/13 00:36:56;;;;;;;32.47;30.97;;;;;;;;;;5094387;28;20249;-80
2021/12/13 00:39:25;;;;;;;29.67;28.33;;;;;;;;;;5094308;28;20289;-79
2021/12/13 00:41:52;;;;;;;28.47;26.63;;;;;;;;;;5094621;28;20285;-80
2021/12/13 00:44:21;;;;;;;28.47;27.07;;;;;;;;;;5094333;28;20634;-79
2021/12/13 00:46:51;;;;;;;31.67;29.97;;;;;;;;;;5094491;28;20288;-79
2021/12/13 00:49:19;;;;;;;32.13;30.60;;;;;;;;;;5094216;28;20285;-80
2021/12/13 00:51:47;;;;;;;33.33;31.47;;;;;;;;;;5094420;28;20225;-79
2021/12/13 00:54:15;;;;;;;31.97;30.37;;;;;;;;;;5094385;28;20690;-79
2021/12/13 00:56:48;;;;;;;34.80;33.10;;;;;;;;;;5093918;28;20313;-79
2021/12/13 00:59:20;;;;;;;34.40;32.70;;;;;;;;;;5094509;28;20225;-79
2021/12/13 01:01:51;;;;;;;30.40;28.90;;;;;;;;;;5094263;28;20542;-79
2021/12/13 01:04:18;;;;;;;32.60;31.00;;;;;;;;;;5094016;28;20194;-80
2021/12/13 01:07:03;;;;;;;32.90;31.23;;;;;;;;;;5093811;28;20236;-80
2021/12/13 01:09:48;;;;;;;29.63;28.17;;;;;;;;;;5094071;28;20226;-79
2021/12/13 01:12:18;;;;;;;33.93;32.23;;;;;;;;;;5093430;28;20722;-79
2021/12/13 01:14:56;;;;;;;27.83;26.53;;;;;;;;;;5093862;28;20198;-79
2021/12/13 01:17:37;;;;;;;27.37;26.07;;;;;;;;;;5093654;28;20197;-80
2021/12/13 01:20:08;;;;;;;26.43;25.13;;;;;;;;;;5093948;28;20289;-79
2021/12/13 01:22:45;;;;;;;27.50;26.20;;;;;;;;;;5093585;28;20185;-79
2021/12/13 01:25:24;;;;;;;36.50;34.33;;;;;;;;;;5093509;28;20683;-79
2021/12/13 01:27:56;;;;;;;34.50;32.80;;;;;;;;;;5093806;28;20190;-79
2021/12/13 01:30:24;;;;;;;27.27;25.97;;;;;;;;;;5093168;28;20230;-80
2021/12/13 01:32:55;;;;;;;32.47;30.90;;;;;;;;;;5094622;28;20190;-79
2021/12/13 01:35:23;;;;;;;32.80;31.10;;;;;;;;;;5093255;28;20252;-79
2021/12/13 01:37:53;;;;;;;30.17;28.57;;;;;;;;;;5093562;28;20221;-79
2021/12/13 01:40:22;;;;;;;31.37;29.87;;;;;;;;;;5093451;28;20271;-80
2021/12/13 01:42:55;;;;;;;30.83;29.23;;;;;;;;;;5093697;28;20228;-80
2021/12/13 01:45:22;;;;;;;28.77;27.27;;;;;;;;;;5093071;28;20281;-79
2021/12/13 01:47:48;;;;;;;30.27;28.77;;;;;;;;;;5093084;28;20652;-80
2021/12/13 01:50:18;;;;;;;31.07;29.57;;;;;;;;;;5093042;28;20723;-80
2021/12/13 01:52:46;;;;;;;28.93;27.53;;;;;;;;;;5093236;28;20274;-80
2021/12/13 01:55:14;;;;;;;32.03;30.43;;;;;;;;;;5092895;28;20243;-80
2021/12/13 01:57:48;;;;;;;30.50;28.90;;;;;;;;;;5092878;28;20194;-80
2021/12/13 02:00:18;;;;;;;31.67;30.07;;;;;;;;;;5093336;28;20190;-80
2021/12/13 02:02:46;;;;;;;28.67;27.37;;;;;;;;;;5093086;28;20186;-80
2021/12/13 02:05:17;;;;;;;29.27;27.87;;;;;;;;;;5092783;28;20292;-81
2021/12/13 02:07:47;;;;;;;29.37;27.97;;;;;;;;;;5092928;28;20659;-79
2021/12/13 02:10:16;;;;;;;29.03;27.73;;;;;;;;;;5093556;28;20198;-80
2021/12/13 02:12:46;;;;;;;28.10;26.90;;;;;;;;;;5092944;28;20221;-80
2021/12/13 02:17:59;;;;;;;28.07;26.77;;;;;;;;;;5093194;28;20271;-80
2021/12/13 02:20:28;;;;;;;25.20;24.00;;;;;;;;;;5092821;28;20652;-80
2021/12/13 02:22:57;;;;;;;28.73;27.40;;;;;;;;;;5092438;28;20645;-80
2021/12/13 02:25:25;;;;;;;28.73;27.33;;;;;;;;;;5091802;28;20194;-80
2021/12/13 02:27:54;;;;;;;28.50;27.20;;;;;;;;;;5092412;28;20240;-80
2021/12/13 02:30:26;;;;;;;27.77;26.47;;;;;;;;;;5092278;28;20221;-80
2021/12/13 02:32:53;;;;;;;28.70;27.40;;;;;;;;;;5092654;28;20190;-80
2021/12/13 02:35:20;;;;;;;28.07;26.73;;;;;;;;;;5092550;28;20267;-80
2021/12/13 02:37:47;;;;;;;29.63;28.23;;;;;;;;;;5092253;28;20197;-80
2021/12/13 02:40:17;;;;;;;29.30;27.90;;;;;;;;;;5092204;28;20309;-80
2021/12/13 02:42:44;;;;;;;30.13;28.67;;;;;;;;;;5092504;28;20281;-80
2021/12/13 02:45:15;;;;;;;29.87;28.37;;;;;;;;;;5092540;28;20282;-80
2021/12/13 02:47:47;;;;;;;29.93;28.43;;;;;;;;;;5092451;28;20221;-80
2021/12/13 02:50:15;;;;;;;29.53;28.10;;;;;;;;;;5092469;28;20276;-80
2021/12/13 02:52:42;;;;;;;29.20;27.70;;;;;;;;;;5092469;28;20229;-80
2021/12/13 02:55:11;;;;;;;33.50;31.63;;;;;;;;;;5092635;28;20233;-78
2021/12/13 02:57:42;;;;;;;29.50;27.97;;;;;;;;;;5092320;28;20332;-78
2021/12/13 03:00:14;;;;;;;29.97;28.53;;;;;;;;;;5092521;28;20243;-78
2021/12/13 03:02:43;;;;;;;27.20;26.00;;;;;;;;;;5092386;28;20269;-78
2021/12/13 03:05:11;;;;;;;25.77;24.57;;;;;;;;;;5092309;28;20236;-78
2021/12/13 03:07:42;;;;;;;26.47;25.27;;;;;;;;;;5092018;28;20574;-78
2021/12/13 03:10:12;;;;;;;26.07;24.87;;;;;;;;;;5092252;28;20238;-78
2021/12/13 03:12:42;;;;;;;26.90;25.60;;;;;;;;;;5091950;28;20653;-78
2021/12/13 03:15:12;;;;;;;30.80;29.40;;;;;;;;;;5091834;28;20194;-78
2021/12/13 03:17:43;;;;;;;29.90;28.50;;;;;;;;;;5092165;28;20314;-78
2021/12/13 03:20:21;;;;;;;31.80;30.30;;;;;;;;;;5091917;28;20182;-79
2021/12/13 03:23:08;;;;;;;30.53;29.13;;;;;;;;;;5092686;28;20251;-78
2021/12/13 03:25:40;;;;;;;28.70;27.33;;;;;;;;;;5088429;28;20281;-78
2021/12/13 03:28:23;;;;;;;26.63;25.33;;;;;;;;;;5091804;28;20715;-78
2021/12/13 03:30:55;;;;;;;28.33;27.03;;;;;;;;;;5091748;28;20290;-78
2021/12/13 03:33:41;;;;;;;27.03;25.73;;;;;;;;;;5091930;28;20673;-78
2021/12/13 03:36:09;;;;;;;27.53;26.23;;;;;;;;;;5093335;28;20572;-78
2021/12/13 03:38:38;;;;;;;29.23;27.83;;;;;;;;;;5095826;28;20221;-78
2021/12/13 03:41:05;;;;;;;26.90;25.60;;;;;;;;;;5095835;28;20233;-78
2021/12/13 03:43:35;;;;;;;30.57;29.07;;;;;;;;;;5095741;28;20363;-78
2021/12/13 03:46:04;;;;;;;25.87;24.47;;;;;;;;;;5095789;28;20193;-78
2021/12/13 03:48:31;;;;;;;26.33;25.10;;;;;;;;;;5095545;28;20190;-78
2021/12/13 03:51:00;;;;;;;24.33;22.93;;;;;;;;;;5095445;28;20190;-78
2021/12/13 03:53:28;;;;;;;24.20;23.00;;;;;;;;;;5095711;28;20190;-78
2021/12/13 03:56:01;;;;;;;26.40;25.10;;;;;;;;;;5095818;28;20681;-78
2021/12/13 03:58:30;;;;;;;24.97;23.77;;;;;;;;;;5095381;28;20193;-78
2021/12/13 04:00:59;;;;;;;24.93;23.73;;;;;;;;;;5095513;28;20197;-78
2021/12/13 04:03:27;;;;;;;23.37;22.27;;;;;;;;;;5095194;28;20193;-78
2021/12/13 04:05:55;;;;;;;24.13;22.93;;;;;;;;;;5095494;28;20194;-78
2021/12/13 04:08:22;;;;;;;23.47;22.27;;;;;;;;;;5096125;28;20246;-78
2021/12/13 04:10:51;;;;;;;24.10;22.80;;;;;;;;;;5095315;28;20286;-78
2021/12/13 04:13:19;;;;;;;23.97;22.77;;;;;;;;;;5095160;28;20724;-78
2021/12/13 04:15:57;;;;;;;25.57;23.97;;;;;;;;;;5095178;28;20194;-78
2021/12/13 04:18:39;;;;;;;22.50;21.20;;;;;;;;;;5096709;28;20210;-78
2021/12/13 04:21:07;;;;;;;23.23;21.93;;;;;;;;;;5096569;28;20182;-77
2021/12/13 04:23:35;;;;;;;25.50;23.77;;;;;;;;;;5094806;28;20225;-78
2021/12/13 04:26:02;;;;;;;23.87;22.47;;;;;;;;;;5094985;28;20194;-78
2021/12/13 04:28:34;;;;;;;23.63;22.33;;;;;;;;;;5094806;28;20285;-77
2021/12/13 04:31:01;;;;;;;22.23;20.93;;;;;;;;;;5094583;28;20308;-77
2021/12/13 04:33:30;;;;;;;22.37;21.13;;;;;;;;;;5094636;28;20229;-78
2021/12/13 04:35:58;;;;;;;24.70;23.17;;;;;;;;;;5094853;28;20231;-77
2021/12/13 04:38:27;;;;;;;24.50;22.90;;;;;;;;;;5094740;28;20266;-77
2021/12/13 04:40:54;;;;;;;23.80;22.50;;;;;;;;;;5094484;28;20219;-77
2021/12/13 04:43:22;;;;;;;24.93;23.23;;;;;;;;;;5094344;28;20201;-77
2021/12/13 04:45:50;;;;;;;22.77;21.47;;;;;;;;;;5094864;28;20202;-77
2021/12/13 04:48:18;;;;;;;22.57;21.23;;;;;;;;;;5093870;28;20243;-77
2021/12/13 04:50:48;;;;;;;19.83;18.73;;;;;;;;;;5094515;28;20259;-77
2021/12/13 04:53:20;;;;;;;20.27;19.07;;;;;;;;;;5094218;28;20245;-77
2021/12/13 04:55:48;;;;;;;21.53;20.33;;;;;;;;;;5094359;28;20194;-77
2021/12/13 04:58:17;;;;;;;21.97;20.77;;;;;;;;;;5094053;28;20287;-77
2021/12/13 05:00:46;;;;;;;21.97;20.67;;;;;;;;;;5093979;28;20197;-78
2021/12/13 05:03:13;;;;;;;21.50;20.30;;;;;;;;;;5094268;28;20244;-77
2021/12/13 05:05:40;;;;;;;21.87;20.50;;;;;;;;;;5093856;28;20200;-77
2021/12/13 05:08:13;;;;;;;21.83;20.53;;;;;;;;;;5094192;28;20258;-77
2021/12/13 05:10:42;;;;;;;22.93;21.63;;;;;;;;;;5094187;28;20268;-77
2021/12/13 05:13:11;;;;;;;21.50;20.20;;;;;;;;;;5094042;28;20197;-77
2021/12/13 05:15:39;;;;;;;24.00;22.60;;;;;;;;;;5093712;28;20196;-77
2021/12/13 05:18:07;;;;;;;21.70;20.40;;;;;;;;;;5093851;28;20302;-77
2021/12/13 05:20:35;;;;;;;23.73;22.33;;;;;;;;;;5093944;28;20193;-77
2021/12/13 05:23:03;;;;;;;22.20;20.90;;;;;;;;;;5093575;28;20197;-77
2021/12/13 05:25:33;;;;;;;24.07;22.57;;;;;;;;;;5093850;28;20220;-77
2021/12/13 05:28:02;;;;;;;22.40;21.10;;;;;;;;;;5093458;28;20183;-77
2021/12/13 05:30:29;;;;;;;23.23;21.83;;;;;;;;;;5093467;28;20682;-77
2021/12/13 05:32:58;;;;;;;23.23;21.83;;;;;;;;;;5093381;28;20717;-77
2021/12/13 05:35:28;;;;;;;24.77;23.37;;;;;;;;;;5093290;28;20280;-77
2021/12/13 05:37:56;;;;;;;25.60;24.30;;;;;;;;;;5093510;28;20287;-76
2021/12/13 05:40:24;;;;;;;24.10;22.80;;;;;;;;;;5093544;28;20221;-77
2021/12/13 05:42:55;;;;;;;23.63;22.33;;;;;;;;;;5093201;28;20281;-77
2021/12/13 05:45:30;;;;;;;22.50;21.30;;;;;;;;;;5093469;28;20190;-76
2021/12/13 05:48:00;;;;;;;22.00;20.80;;;;;;;;;;5093741;28;20255;-76
2021/12/13 05:50:31;;;;;;;21.73;20.53;;;;;;;;;;5093391;28;20201;-77
2021/12/13 05:53:02;;;;;;;21.70;20.50;;;;;;;;;;5093374;28;20213;-76
2021/12/13 05:55:29;;;;;;;22.83;21.53;;;;;;;;;;5093262;28;20229;-77
2021/12/13 05:57:57;;;;;;;22.00;20.80;;;;;;;;;;5093162;28;20274;-77
2021/12/13 06:00:26;;;;;;;23.77;22.47;;;;;;;;;;5092257;28;20577;-76
2021/12/13 06:02:59;;;;;;;22.77;21.47;;;;;;;;;;5093165;28;20243;-76
2021/12/13 06:05:28;;;;;;;21.40;20.30;;;;;;;;;;5093157;28;20186;-76
2021/12/13 06:07:56;;;;;;;21.57;20.47;;;;;;;;;;5093079;28;20275;-76
2021/12/13 06:10:26;;;;;;;22.53;21.23;;;;;;;;;;5092973;28;20222;-77
2021/12/13 06:12:54;;;;;;;26.87;25.43;;;;;;;;;;5092899;28;20288;-76
2021/12/13 06:15:27;;;;;;;28.47;26.97;;;;;;;;;;5092903;28;20202;-76
2021/12/13 06:17:56;;;;;;;28.30;26.80;;;;;;;;;;5092519;28;20213;-76
2021/12/13 06:20:26;;;;;;;27.00;25.50;;;;;;;;;;5092860;28;20255;-76
2021/12/13 06:22:53;;;;;;;26.93;25.50;;;;;;;;;;5093105;28;20198;-77
2021/12/13 06:25:22;;;;;;;27.57;26.03;;;;;;;;;;5092481;28;20338;-77
2021/12/13 06:27:51;;;;;;;26.60;25.10;;;;;;;;;;5093044;28;20205;-76
2021/12/13 06:30:20;;;;;;;27.53;25.93;;;;;;;;;;5092444;28;20309;-76
2021/12/13 06:32:53;;;;;;;25.73;24.23;;;;;;;;;;5092767;28;20600;-76
2021/12/13 06:35:40;;;;;;;24.27;22.87;;;;;;;;;;5092372;28;20683;-78
2021/12/13 06:38:28;;;;;;;24.47;23.07;;;;;;;;;;5092601;28;20271;-77
2021/12/13 06:40:56;;;;;;;23.80;22.40;;;;;;;;;;5092919;28;20263;-78
2021/12/13 06:43:26;;;;;;;21.93;20.73;;;;;;;;;;5092523;28;20190;-77
2021/12/13 06:45:53;;;;;;;21.73;20.53;;;;;;;;;;5092852;28;20247;-77
2021/12/13 06:48:32;;;;;;;22.70;21.47;;;;;;;;;;5092481;28;20194;-78
2021/12/13 06:50:59;;;;;;;21.60;20.20;;;;;;;;;;5092495;28;20238;-77
2021/12/13 06:53:26;;;;;;;25.50;23.97;;;;;;;;;;5092373;28;20194;-78
2021/12/13 06:55:53;;;;;;;26.90;25.30;;;;;;;;;;5092090;28;20285;-77
2021/12/13 06:58:22;;;;;;;28.13;26.43;;;;;;;;;;5093120;28;20308;-77
2021/12/13 07:00:50;;;;;;;27.07;25.27;;;;;;;;;;5092340;28;20292;-77
2021/12/13 07:03:19;;;;;;;32.30;30.60;;;;;;;;;;5091943;28;20620;-77
2021/12/13 07:05:49;;;;;;;23.90;22.70;;;;;;;;;;5092194;28;20196;-77
2021/12/13 07:08:19;;;;;;;24.43;23.23;;;;;;;;;;5092498;28;20201;-77
2021/12/13 07:10:56;;;;;;;23.87;22.67;;;;;;;;;;5093340;28;20200;-78
2021/12/13 07:13:24;;;;;;;23.80;22.60;;;;;;;;;;5096157;28;20192;-77
2021/12/13 07:15:55;;;;;;;25.70;24.20;;;;;;;;;;5096365;28;20190;-76
2021/12/13 07:18:29;;;;;;;24.20;22.90;;;;;;;;;;5096007;28;20217;-77
2021/12/13 07:20:58;;;;;;;28.93;27.03;;;;;;;;;;5096299;28;20193;-77
2021/12/13 07:23:25;;;;;;;25.93;24.53;;;;;;;;;;5096123;28;20231;-77
2021/12/13 07:25:53;;;;;;;24.50;23.20;;;;;;;;;;5096140;28;20194;-77
2021/12/13 07:28:30;;;;;;;27.27;25.77;;;;;;;;;;5096056;28;20202;-77
2021/12/13 07:30:58;;;;;;;28.50;26.70;;;;;;;;;;5095732;28;20229;-77
2021/12/13 07:33:35;;;;;;;22.60;21.40;;;;;;;;;;5095778;28;20555;-77
2021/12/13 07:36:14;;;;;;;27.67;26.13;;;;;;;;;;5095957;28;20272;-77
2021/12/13 07:38:47;;;;;;;23.20;22.10;;;;;;;;;;5096476;28;20213;-77
2021/12/13 07:41:14;;;;;;;24.20;23.00;;;;;;;;;;5095741;28;20255;-78
2021/12/13 07:43:43;;;;;;;23.00;21.90;;;;;;;;;;5095765;28;20225;-77
2021/12/13 07:46:11;;;;;;;24.00;22.80;;;;;;;;;;5095757;28;20276;-77
2021/12/13 07:48:54;;;;;;;26.00;24.70;;;;;;;;;;5095460;28;20197;-77
2021/12/13 07:51:25;;;;;;;27.13;25.77;;;;;;;;;;5095406;28;20190;-76
2021/12/13 07:53:54;;;;;;;26.00;24.70;;;;;;;;;;5095920;28;20193;-77
2021/12/13 07:56:23;;;;;;;22.83;21.73;;;;;;;;;;5095294;28;20194;-77
2021/12/13 07:58:51;;;;;;;23.27;21.97;;;;;;;;;;5095475;28;20232;-77
2021/12/13 08:01:20;;;;;;;25.07;23.77;;;;;;;;;;5095448;28;20229;-77
2021/12/13 08:03:48;;;;;;;23.30;22.10;;;;;;;;;;5095095;28;20200;-77
2021/12/13 08:06:16;;;;;;;24.30;23.03;;;;;;;;;;5095491;28;20255;-77
2021/12/13 08:08:50;;;;;;;32.20;30.40;;;;;;;;;;5095287;28;20204;-77
2021/12/13 08:11:18;;;;;;;29.63;28.23;;;;;;;;;;5095221;28;20273;-77
2021/12/13 08:13:55;;;;;;;32.03;29.93;;;;;;;;;;5094931;28;20193;-78
2021/12/13 08:16:28;;;;;;;29.57;28.07;;;;;;;;;;5095309;28;20192;-77
2021/12/13 08:19:04;;;;;;;25.87;24.47;;;;;;;;;;5095343;28;20296;-78
2021/12/13 08:21:30;;;;;;;26.33;25.03;;;;;;;;;;5094638;28;20709;-77
2021/12/13 08:24:01;;;;;;;25.07;23.77;;;;;;;;;;5094292;28;20251;-77
2021/12/13 08:26:30;;;;;;;23.83;22.63;;;;;;;;;;5094948;28;20743;-77
2021/12/13 08:28:58;;;;;;;26.00;24.50;;;;;;;;;;5094930;28;20226;-76
2021/12/13 08:31:26;;;;;;;31.57;29.83;;;;;;;;;;5094748;28;20290;-77
2021/12/13 08:33:55;;;;;;;24.00;22.80;;;;;;;;;;5094556;28;20197;-76
2021/12/13 08:36:28;;;;;;;21.43;20.43;;;;;;;;;;5094762;28;20406;-77
2021/12/13 08:39:02;;;;;;;21.77;20.77;;;;;;;;;;5094506;28;20213;-77
2021/12/13 08:41:30;;;;;;;19.27;18.37;;;;;;;;;;5094490;28;20580;-77
2021/12/13 08:44:00;;;;;;;20.13;19.03;;;;;;;;;;5094364;28;20202;-78
2021/12/13 08:46:30;;;;;;;27.67;26.23;;;;;;;;;;5094252;28;20733;-76
2021/12/13 08:48:57;;;;;;;24.23;23.13;;;;;;;;;;5094846;28;20202;-78
2021/12/13 08:51:25;;;;;;;25.57;24.27;;;;;;;;;;5094491;28;20199;-78
2021/12/13 08:54:04;;;;;;;26.10;24.80;;;;;;;;;;5094442;28;20280;-78
2021/12/13 08:56:35;;;;;;;30.93;29.40;;;;;;;;;;5094439;28;20186;-77
2021/12/13 08:59:05;;;;;;;23.00;21.80;;;;;;;;;;5094392;28;20296;-77
2021/12/13 09:01:39;;;;;;;29.63;27.77;;;;;;;;;;5093991;28;20204;-77
2021/12/13 09:04:09;;;;;;;26.27;24.87;;;;;;;;;;5094309;28;20218;-78
2021/12/13 09:06:36;;;;;;;25.13;23.83;;;;;;;;;;5093846;28;20198;-77
2021/12/13 09:09:09;;;;;;;23.90;22.70;;;;;;;;;;5094221;28;20255;-77
2021/12/13 09:11:38;;;;;;;28.47;27.07;;;;;;;;;;5094273;28;20194;-77
2021/12/13 09:14:10;;;;;;;26.80;25.40;;;;;;;;;;5094091;28;20231;-78
2021/12/13 09:16:44;;;;;;;28.33;26.73;;;;;;;;;;5093772;28;20224;-77
2021/12/13 09:19:13;;;;;;;29.90;28.33;;;;;;;;;;5093902;28;20218;-77
2021/12/13 09:21:48;;;;;;;24.60;23.30;;;;;;;;;;5093933;28;20276;-77
2021/12/13 09:24:24;;;;;;;24.87;23.57;;;;;;;;;;5093596;28;20199;-77
2021/12/13 09:26:51;;;;;;;26.03;24.63;;;;;;;;;;5093891;28;20186;-77
2021/12/13 09:29:18;;;;;;;25.97;24.57;;;;;;;;;;5093918;28;20197;-78
2021/12/13 09:31:45;;;;;;;27.00;25.40;;;;;;;;;;5093542;28;20267;-77
2021/12/13 09:34:14;;;;;;;30.50;28.90;;;;;;;;;;5093428;28;20254;-78
2021/12/13 09:36:42;;;;;;;32.90;31.30;;;;;;;;;;5093301;28;20190;-76
2021/12/13 09:39:16;;;;;;;33.13;31.33;;;;;;;;;;5093142;28;20218;-77
2021/12/13 09:41:47;;;;;;;34.07;32.37;;;;;;;;;;5093280;28;20243;-77
2021/12/13 09:44:20;;;;;;;27.50;26.13;;;;;;;;;;5093172;28;20190;-76
2021/12/13 09:46:51;;;;;;;26.80;25.20;;;;;;;;;;5093471;28;20215;-77
2021/12/13 09:49:23;;;;;;;34.23;32.13;;;;;;;;;;5093126;28;20247;-76
2021/12/13 09:51:52;;;;;;;28.73;27.07;;;;;;;;;;5093385;28;20186;-78
2021/12/13 09:54:21;;;;;;;36.87;34.87;;;;;;;;;;5093170;28;20656;-76
2021/12/13 09:56:50;;;;;;;29.60;27.97;;;;;;;;;;5093389;28;20197;-81
2021/12/13 09:59:20;;;;;;;30.43;28.53;;;;;;;;;;5093200;28;20268;-78
2021/12/13 10:01:47;;;;;;;31.07;29.37;;;;;;;;;;5092934;28;20770;-81
2021/12/13 10:04:15;;;;;;;28.40;26.90;;;;;;;;;;5093253;28;20270;-76
2021/12/13 10:06:43;;;;;;;30.53;28.73;;;;;;;;;;5093217;28;20197;-80
2021/12/13 10:09:11;;;;;;;23.43;22.07;;;;;;;;;;5093024;28;20197;-79
2021/12/13 10:11:40;;;;;;;26.63;25.10;;;;;;;;;;5093512;28;20193;-79
2021/12/13 10:14:09;;;;;;;34.27;31.97;;;;;;;;;;5094218;28;20679;-79
2021/12/13 10:16:39;;;;;;;32.33;30.63;;;;;;;;;;5094870;28;20225;-78
2021/12/13 10:19:09;;;;;;;33.47;31.67;;;;;;;;;;5095345;28;20274;-83
2021/12/13 10:21:37;;;;;;;35.93;34.03;;;;;;;;;;5095233;28;20193;-79
2021/12/13 10:24:06;;;;;;;34.07;32.27;;;;;;;;;;5098969;28;20204;-80
2021/12/13 10:26:35;;;;;;;35.43;33.23;;;;;;;;;;5093492;28;20225;-78
2021/12/13 10:29:04;;;;;;;34.33;32.13;;;;;;;;;;5094270;28;20194;-76
2021/12/13 10:31:34;;;;;;;35.97;33.77;;;;;;;;;;5095672;28;20303;-80
2021/12/13 10:34:01;;;;;;;33.93;32.13;;;;;;;;;;5093471;28;20196;-82
2021/12/13 10:36:28;;;;;;;28.77;27.17;;;;;;;;;;5094363;28;20252;-77
2021/12/13 10:38:56;;;;;;;30.17;27.90;;;;;;;;;;5093057;28;20780;-75
2021/12/13 10:41:25;;;;;;;28.27;26.67;;;;;;;;;;5092600;28;20263;-79
2021/12/13 10:43:54;;;;;;;32.87;30.87;;;;;;;;;;5092742;28;20717;-80
2021/12/13 10:46:23;;;;;;;35.23;33.23;;;;;;;;;;5092270;28;20236;-79
2021/12/13 10:48:52;;;;;;;32.93;31.10;;;;;;;;;;5092622;28;20198;-76
2021/12/13 10:51:22;;;;;;;27.67;26.10;;;;;;;;;;5093337;28;20194;-78
2021/12/13 10:53:50;;;;;;;30.30;28.60;;;;;;;;;;5094726;28;20651;-79
2021/12/13 10:56:20;;;;;;;33.50;31.60;;;;;;;;;;5093536;28;20276;-83
2021/12/13 10:58:48;;;;;;;35.73;33.63;;;;;;;;;;5094919;28;20253;-80
2021/12/13 11:01:17;;;;;;;32.97;31.17;;;;;;;;;;5095532;28;20193;-82
2021/12/13 11:03:44;;;;;;;32.10;30.30;;;;;;;;;;5097468;28;20262;-75
2021/12/13 11:06:14;;;;;;;35.17;33.27;;;;;;;;;;5094748;28;20741;-80
2021/12/13 11:08:42;;;;;;;35.73;33.83;;;;;;;;;;5093712;28;20197;-77
2021/12/13 11:11:13;;;;;;;34.93;32.83;;;;;;;;;;5095815;28;20193;-81
2021/12/13 11:13:40;;;;;;;33.43;31.40;;;;;;;;;;5094246;28;20229;-83
2021/12/13 11:16:08;;;;;;;28.57;26.97;;;;;;;;;;5093377;28;20236;-81
2021/12/13 11:18:35;;;;;;;31.00;29.23;;;;;;;;;;5094007;28;20260;-82
2021/12/13 11:21:05;;;;;;;28.30;26.80;;;;;;;;;;5093545;28;20271;-82
2021/12/13 11:23:33;;;;;;;23.87;22.67;;;;;;;;;;5095018;28;20190;-77
2021/12/13 11:26:02;;;;;;;25.23;23.73;;;;;;;;;;5095412;28;20194;-75
2021/12/13 11:28:31;;;;;;;30.07;28.27;;;;;;;;;;5096224;28;20201;-82
2021/12/13 11:30:58;;;;;;;32.70;30.13;;;;;;;;;;5094784;28;20263;-77
2021/12/13 11:33:58;;;;;;;30.63;28.73;;;;;;;;;;5094099;28;20230;-74
2021/12/13 11:36:46;;;;;;;31.43;29.43;;;;;;;;;;5093220;28;20550;-77
2021/12/13 11:39:41;;;;;;;29.40;27.70;;;;;;;;;;5093393;28;20239;-81
2021/12/13 11:42:25;;;;;;;34.90;32.80;;;;;;;;;;5093716;28;20198;-77
2021/12/13 11:45:03;;;;;;;38.20;36.00;;;;;;;;;;5092662;28;20190;-81
2021/12/13 11:47:38;;;;;;;34.90;33.03;;;;;;;;;;5091752;28;20182;-76
2021/12/13 11:50:25;;;;;;;37.60;35.60;;;;;;;;;;5092000;28;20220;-79
2021/12/13 11:53:10;;;;;;;39.83;37.67;;;;;;;;;;5073980;28;20280;-75
2021/12/13 11:56:07;;;;;;;35.47;33.57;;;;;;;;;;5091634;28;20239;-75
2021/12/13 11:59:07;;;;;;;30.47;28.87;;;;;;;;;;5095476;28;20252;-74
2021/12/13 12:01:52;;;;;;;27.83;26.13;;;;;;;;;;5052765;28;20223;-75
2021/12/13 12:04:37;;;;;;;28.93;27.23;;;;;;;;;;5052867;28;20198;-79
2021/12/13 12:07:21;;;;;;;33.27;31.37;;;;;;;;;;5082165;28;20229;-77
2021/12/13 12:09:57;;;;;;;33.07;31.17;;;;;;;;;;5095061;28;20276;-77
2021/12/13 12:12:39;;;;;;;27.40;26.10;;;;;;;;;;5095305;28;20217;-79
2021/12/13 12:15:07;;;;;;;24.00;22.90;;;;;;;;;;5095372;28;20229;-75
2021/12/13 12:17:34;;;;;;;27.50;25.90;;;;;;;;;;5094877;28;20190;-75
2021/12/13 12:20:01;;;;;;;25.60;24.10;;;;;;;;;;5094734;28;20710;-79
2021/12/13 12:22:29;;;;;;;27.20;25.70;;;;;;;;;;5094837;28;20194;-75
2021/12/13 12:24:56;;;;;;;26.70;25.10;;;;;;;;;;5094905;28;20202;-79
2021/12/13 12:27:24;;;;;;;24.87;23.67;;;;;;;;;;5094690;28;20198;-77
2021/12/13 12:29:55;;;;;;;22.63;21.53;;;;;;;;;;5094460;28;20656;-82
2021/12/13 12:32:24;;;;;;;25.00;23.80;;;;;;;;;;5094651;28;20683;-79
2021/12/13 12:34:57;;;;;;;21.80;20.80;;;;;;;;;;5094545;28;20194;-79
2021/12/13 12:37:42;;;;;;;22.37;21.27;;;;;;;;;;5094883;28;20243;-76
2021/12/13 12:40:19;;;;;;;24.00;22.80;;;;;;;;;;5095621;28;20221;-75
2021/12/13 12:42:48;;;;;;;25.30;23.23;;;;;;;;;;5094531;28;20644;-76
2021/12/13 12:45:22;;;;;;;25.70;24.40;;;;;;;;;;5094678;28;20201;-73
2021/12/13 12:48:09;;;;;;;27.93;25.90;;;;;;;;;;5094746;28;20217;-82
2021/12/13 12:50:38;;;;;;;24.87;23.60;;;;;;;;;;5095120;28;20189;-81
2021/12/13 12:53:06;;;;;;;22.97;21.87;;;;;;;;;;5094199;28;20375;-76
2021/12/13 12:55:34;;;;;;;30.43;28.63;;;;;;;;;;5094113;28;20236;-80
2021/12/13 12:58:06;;;;;;;28.90;27.20;;;;;;;;;;5094131;28;20206;-78
2021/12/13 13:00:34;;;;;;;26.97;25.67;;;;;;;;;;5093979;28;20253;-82
2021/12/13 13:03:01;;;;;;;23.00;21.90;;;;;;;;;;5094289;28;20652;-78
2021/12/13 13:05:30;;;;;;;20.27;19.37;;;;;;;;;;5093936;28;20286;-81
2021/12/13 13:07:57;;;;;;;21.33;20.23;;;;;;;;;;5093599;28;20671;-74
2021/12/13 13:10:25;;;;;;;22.77;21.70;;;;;;;;;;5093702;28;20202;-83
2021/12/13 13:12:52;;;;;;;24.27;23.07;;;;;;;;;;5094160;28;20289;-81
2021/12/13 13:15:21;;;;;;;22.27;21.27;;;;;;;;;;5094359;28;20189;-75
2021/12/13 13:17:50;;;;;;;21.60;20.63;;;;;;;;;;5093708;28;20190;-81
2021/12/13 13:20:19;;;;;;;21.67;20.67;;;;;;;;;;5093929;28;20239;-79
2021/12/13 13:22:48;;;;;;;19.20;18.30;;;;;;;;;;5093901;28;20197;-80
2021/12/13 13:25:17;;;;;;;19.30;18.33;;;;;;;;;;5093818;28;20208;-75
2021/12/13 13:27:44;;;;;;;20.20;19.30;;;;;;;;;;5093810;28;20193;-82
2021/12/13 13:30:14;;;;;;;20.93;19.93;;;;;;;;;;5093276;28;20261;-80
2021/12/13 13:32:40;;;;;;;19.50;18.60;;;;;;;;;;5093502;28;20729;-79
2021/12/13 13:35:10;;;;;;;23.00;21.63;;;;;;;;;;5093354;28;20238;-76
2021/12/13 13:37:40;;;;;;;20.53;19.43;;;;;;;;;;5093649;28;20194;-81
2021/12/13 13:40:08;;;;;;;19.17;18.33;;;;;;;;;;5093472;28;20269;-80
2021/12/13 13:42:38;;;;;;;20.10;19.07;;;;;;;;;;5093238;28;20189;-74
2021/12/13 13:45:07;;;;;;;19.77;18.87;;;;;;;;;;5093525;28;20263;-82
2021/12/13 13:47:35;;;;;;;20.30;19.13;;;;;;;;;;5093419;28;20247;-81
2021/12/13 13:50:17;;;;;;;19.50;18.53;;;;;;;;;;5093442;28;20571;-81
2021/12/13 13:52:46;;;;;;;19.37;18.47;;;;;;;;;;5093106;28;20208;-77
2021/12/13 13:55:22;;;;;;;19.00;18.20;;;;;;;;;;5093333;28;20607;-81
2021/12/13 13:57:49;;;;;;;19.50;18.50;;;;;;;;;;5093031;28;20200;-77
2021/12/13 14:00:16;;;;;;;19.13;18.23;;;;;;;;;;5093144;28;20232;-75
2021/12/13 14:02:43;;;;;;;18.73;17.93;;;;;;;;;;5094292;28;20232;-77
2021/12/13 14:05:10;;;;;;;19.80;18.90;;;;;;;;;;5092889;28;20281;-72
2021/12/13 14:07:38;;;;;;;19.47;18.57;;;;;;;;;;5093102;28;20215;-84
2021/12/13 14:10:08;;;;;;;19.53;18.53;;;;;;;;;;5092701;28;20225;-80
2021/12/13 14:12:37;;;;;;;19.70;18.80;;;;;;;;;;5093134;28;20224;-75
2021/12/13 14:15:09;;;;;;;19.43;18.53;;;;;;;;;;5092645;28;20243;-81
2021/12/13 14:17:41;;;;;;;19.10;18.17;;;;;;;;;;5092624;28;20194;-82
2021/12/13 14:20:22;;;;;;;18.47;17.67;;;;;;;;;;5092019;28;20697;-73
2021/12/13 14:22:50;;;;;;;18.70;17.90;;;;;;;;;;5093153;28;20228;-80
2021/12/13 14:25:26;;;;;;;17.97;17.17;;;;;;;;;;5092556;28;20251;-80
2021/12/13 14:27:53;;;;;;;22.63;21.53;;;;;;;;;;5092493;28;20182;-81
2021/12/13 14:30:21;;;;;;;23.93;22.63;;;;;;;;;;5092381;28;20261;-73
2021/12/13 14:32:49;;;;;;;27.63;26.03;;;;;;;;;;5092755;28;20190;-83
2021/12/13 14:35:17;;;;;;;21.80;20.70;;;;;;;;;;5093101;28;20225;-82
2021/12/13 14:37:44;;;;;;;24.30;22.63;;;;;;;;;;5093385;28;20227;-78
2021/12/13 14:40:11;;;;;;;21.10;19.97;;;;;;;;;;5093015;28;20259;-76